createdAt,value
2023-01-13T00:00:16.101Z,10.35
2023-01-13T00:02:38.598Z,10.93
2023-01-13T00:04:40.335Z,10.80
2023-01-13T00:06:42.501Z,10.02
2023-01-13T00:08:44.630Z,9.00
2023-01-13T00:10:48.002Z,9.40
2023-01-13T00:12:49.750Z,8.88
2023-01-13T00:14:51.902Z,10.50
2023-01-13T00:16:53.604Z,10.10
2023-01-13T00:18:55.643Z,9.50
2023-01-13T00:21:04.846Z,9.80
2023-01-13T00:23:06.889Z,9.73
2023-01-13T00:25:09.026Z,9.85
2023-01-13T00:27:11.085Z,9.90
2023-01-13T00:29:12.904Z,9.85
2023-01-13T00:31:16.215Z,10.05
2023-01-13T00:35:19.537Z,10.55
2023-01-13T00:37:21.627Z,9.73
2023-01-13T00:39:23.565Z,10.02
2023-01-13T00:41:26.590Z,10.30
2023-01-13T00:43:28.982Z,11.07
2023-01-13T00:45:30.679Z,9.90
2023-01-13T00:47:32.812Z,10.55
2023-01-13T00:49:34.528Z,10.05
2023-01-13T00:51:36.534Z,10.30
2023-01-13T00:53:39.974Z,10.45
2023-01-13T00:55:41.682Z,10.05
2023-01-13T00:57:43.729Z,10.87
2023-01-13T00:59:45.385Z,10.07
2023-01-13T01:01:47.564Z,10.93
2023-01-13T01:03:50.042Z,10.23
2023-01-13T01:05:51.736Z,11.68
2023-01-13T01:07:53.931Z,11.23
2023-01-13T01:09:55.646Z,10.90
2023-01-13T01:11:57.678Z,10.97
2023-01-13T01:14:01.993Z,10.60
2023-01-13T01:16:09.195Z,11.02
2023-01-13T01:18:10.960Z,10.32
2023-01-13T01:20:13.144Z,11.47
2023-01-13T01:22:14.826Z,11.13
2023-01-13T01:24:16.912Z,11.87
2023-01-13T01:26:20.276Z,11.00
2023-01-13T01:28:21.994Z,10.07
2023-01-13T01:30:24.038Z,10.70
2023-01-13T01:32:25.705Z,9.95
2023-01-13T01:34:27.742Z,9.63
2023-01-13T01:36:33.517Z,10.60
2023-01-13T01:38:35.626Z,10.13
2023-01-13T01:40:37.355Z,9.85
2023-01-13T01:43:05.502Z,10.60
2023-01-13T01:45:21.544Z,10.70
2023-01-13T01:47:24.062Z,10.50
2023-01-13T01:49:29.242Z,10.38
2023-01-13T01:51:33.471Z,10.63
2023-01-13T01:53:35.167Z,10.05
2023-01-13T01:55:38.467Z,10.73
2023-01-13T01:57:52.551Z,9.88
2023-01-13T01:59:54.752Z,10.95
2023-01-13T02:01:56.712Z,10.18
2023-01-13T02:04:01.622Z,10.25
2023-01-13T02:06:03.504Z,10.82
2023-01-13T02:08:06.269Z,10.50
2023-01-13T02:10:09.477Z,10.57
2023-01-13T02:12:29.504Z,9.98
2023-01-13T02:14:32.187Z,10.50
2023-01-13T02:16:33.953Z,10.27
2023-01-13T02:18:54.238Z,10.07
2023-01-13T02:21:22.879Z,9.55
2023-01-13T02:23:56.121Z,10.25
2023-01-13T02:26:05.593Z,9.55
2023-01-13T02:28:11.478Z,10.23
2023-01-13T02:30:36.673Z,9.73
2023-01-13T02:32:48.989Z,9.43
2023-01-13T02:35:01.427Z,10.55
2023-01-13T02:37:06.029Z,10.77
2023-01-13T02:39:31.203Z,9.95
2023-01-13T02:42:01.345Z,9.90
2023-01-13T02:44:07.164Z,10.70
2023-01-13T02:46:12.138Z,10.30
2023-01-13T02:48:15.244Z,11.40
2023-01-13T02:50:22.695Z,10.77
2023-01-13T02:52:24.736Z,10.38
2023-01-13T02:54:28.122Z,9.95
2023-01-13T02:56:31.789Z,9.93
2023-01-13T02:58:35.322Z,11.55
2023-01-13T03:00:37.980Z,9.63
2023-01-13T03:02:40.138Z,10.23
2023-01-13T03:04:48.156Z,10.00
2023-01-13T03:07:04.022Z,10.70
2023-01-13T03:09:16.174Z,10.40
2023-01-13T03:11:19.105Z,11.13
2023-01-13T03:13:21.196Z,8.57
2023-01-13T03:15:29.084Z,9.10
2023-01-13T03:17:39.671Z,9.20
2023-01-13T03:19:57.246Z,8.95
2023-01-13T03:22:17.919Z,9.65
2023-01-13T03:24:26.394Z,9.75
2023-01-13T03:26:33.211Z,9.32
2023-01-13T03:29:04.860Z,9.15
2023-01-13T03:31:17.747Z,9.93
2023-01-13T03:35:42.325Z,9.00
2023-01-13T03:37:46.869Z,9.90
2023-01-13T03:39:52.470Z,9.98
2023-01-13T03:41:57.448Z,9.63
2023-01-13T03:44:23.701Z,9.77
2023-01-13T03:46:29.783Z,10.38
2023-01-13T03:48:33.425Z,10.00
2023-01-13T03:50:37.553Z,9.43
2023-01-13T03:52:45.448Z,9.68
2023-01-13T03:54:51.304Z,9.55
2023-01-13T03:56:58.039Z,9.43
2023-01-13T03:59:02.647Z,10.20
2023-01-13T04:01:10.529Z,10.45
2023-01-13T04:03:18.108Z,10.63
2023-01-13T04:05:20.162Z,10.40
2023-01-13T04:07:37.630Z,11.02
2023-01-13T04:09:50.716Z,10.48
2023-01-13T04:11:55.817Z,10.57
2023-01-13T04:13:58.242Z,10.40
2023-01-13T04:16:00.476Z,10.52
2023-01-13T04:18:11.747Z,11.48
2023-01-13T04:20:14.039Z,11.23
2023-01-13T04:22:15.776Z,11.82
2023-01-13T04:24:17.937Z,11.10
2023-01-13T04:26:19.808Z,11.43
2023-01-13T04:28:21.905Z,11.02
2023-01-13T04:30:23.740Z,11.82
2023-01-13T04:32:25.767Z,10.88
2023-01-13T04:34:28.500Z,11.15
2023-01-13T04:36:30.763Z,9.93
2023-01-13T04:38:32.414Z,10.80
2023-01-13T04:40:34.705Z,12.25
2023-01-13T04:42:36.422Z,11.27
2023-01-13T04:44:38.544Z,11.70
2023-01-13T04:46:40.284Z,11.00
2023-01-13T04:48:42.360Z,10.93
2023-01-13T04:50:44.032Z,10.70
2023-01-13T04:52:49.907Z,11.60
2023-01-13T04:54:51.609Z,10.75
2023-01-13T04:56:53.735Z,10.93
2023-01-13T04:58:55.412Z,11.23
2023-01-13T05:00:57.545Z,24.87
2023-01-13T05:02:59.793Z,22.58
2023-01-13T05:05:01.974Z,23.75
2023-01-13T05:07:03.776Z,15.75
2023-01-13T05:09:05.815Z,11.50
2023-01-13T05:11:27.647Z,9.70
2023-01-13T05:13:48.140Z,10.25
2023-01-13T05:16:22.226Z,10.10
2023-01-13T05:18:24.433Z,9.73
2023-01-13T05:20:26.099Z,8.98
2023-01-13T05:22:47.132Z,8.73
2023-01-13T05:25:07.662Z,9.90
2023-01-13T05:27:09.984Z,9.23
2023-01-13T05:29:11.686Z,9.30
2023-01-13T05:31:14.996Z,10.07
2023-01-13T05:33:17.701Z,9.07
2023-01-13T05:37:21.900Z,9.30
2023-01-13T05:39:24.065Z,10.20
2023-01-13T05:41:44.951Z,9.95
2023-01-13T05:43:47.506Z,9.13
2023-01-13T05:45:50.711Z,9.52
2023-01-13T05:47:52.489Z,9.80
2023-01-13T05:49:54.492Z,10.75
2023-01-13T05:51:56.193Z,9.80
2023-01-13T05:53:59.306Z,10.73
2023-01-13T05:56:03.883Z,11.38
2023-01-13T05:58:06.373Z,10.00
2023-01-13T06:00:08.511Z,11.00
2023-01-13T06:02:10.628Z,11.98
2023-01-13T06:04:12.589Z,11.27
2023-01-13T06:06:14.688Z,10.93
2023-01-13T06:08:16.400Z,11.10
2023-01-13T06:10:18.589Z,11.77
2023-01-13T06:12:20.278Z,11.93
2023-01-13T06:14:22.357Z,12.02
2023-01-13T06:16:24.110Z,11.60
2023-01-13T06:18:26.839Z,11.80
2023-01-13T06:20:28.519Z,11.23
2023-01-13T06:22:35.709Z,13.93
2023-01-13T06:24:37.486Z,12.52
2023-01-13T06:26:40.356Z,11.27
2023-01-13T06:28:42.032Z,11.95
2023-01-13T06:30:48.881Z,12.27
2023-01-13T06:32:53.173Z,14.48
2023-01-13T06:34:58.797Z,12.20
2023-01-13T06:37:00.991Z,10.70
2023-01-13T06:39:04.102Z,10.60
2023-01-13T06:41:07.320Z,12.10
2023-01-13T06:43:16.687Z,11.00
2023-01-13T06:45:19.065Z,10.30
2023-01-13T06:47:22.483Z,11.07
2023-01-13T06:51:26.348Z,10.88
2023-01-13T06:53:28.047Z,9.82
2023-01-13T06:55:30.251Z,11.07
2023-01-13T06:57:31.987Z,11.70
2023-01-13T06:59:35.322Z,11.38
2023-01-13T07:01:37.416Z,10.75
2023-01-13T07:03:40.517Z,11.20
2023-01-13T07:05:43.147Z,9.82
2023-01-13T07:09:46.813Z,10.75
2023-01-13T07:11:48.935Z,9.30
2023-01-13T07:14:09.527Z,9.63
2023-01-13T07:16:11.640Z,9.18
2023-01-13T07:18:13.365Z,9.73
2023-01-13T07:20:15.982Z,9.87
2023-01-13T07:22:17.777Z,9.15
2023-01-13T07:24:20.345Z,9.87
2023-01-13T07:26:22.019Z,8.55
2023-01-13T07:28:28.760Z,8.37
2023-01-13T07:30:30.456Z,7.90
2023-01-13T07:32:33.294Z,8.70
2023-01-13T07:34:35.008Z,8.30
2023-01-13T07:36:37.109Z,9.20
2023-01-13T07:38:40.020Z,8.48
2023-01-13T07:40:42.129Z,9.15
2023-01-13T07:43:02.722Z,8.38
2023-01-13T07:45:04.985Z,8.52
2023-01-13T07:47:08.584Z,9.15
2023-01-13T07:49:10.671Z,9.40
2023-01-13T07:51:12.371Z,10.57
2023-01-13T07:53:14.478Z,9.80
2023-01-13T07:55:16.281Z,9.15
2023-01-13T07:57:18.448Z,9.32
2023-01-13T07:59:20.144Z,9.13
2023-01-13T08:01:22.990Z,9.23
2023-01-13T08:03:25.128Z,9.23
2023-01-13T08:05:27.187Z,9.10
2023-01-13T08:07:28.894Z,9.05
2023-01-13T08:09:31.006Z,9.03
2023-01-13T08:11:32.709Z,9.07
2023-01-13T08:13:35.134Z,8.73
2023-01-13T08:15:36.821Z,8.67
2023-01-13T08:17:38.519Z,9.73
2023-01-13T08:19:40.692Z,9.65
2023-01-13T08:21:42.444Z,8.25
2023-01-13T08:23:45.337Z,9.00
2023-01-13T08:25:47.131Z,9.23
2023-01-13T08:27:49.693Z,9.10
2023-01-13T08:29:51.418Z,9.05
2023-01-13T08:31:53.450Z,9.47
2023-01-13T08:33:55.103Z,9.70
2023-01-13T08:35:57.471Z,8.10
2023-01-13T08:37:59.263Z,9.27
2023-01-13T08:40:01.348Z,8.80
2023-01-13T08:42:04.006Z,8.18
2023-01-13T08:46:08.418Z,8.75
2023-01-13T08:48:10.774Z,9.30
2023-01-13T08:50:12.752Z,8.65
2023-01-13T08:52:15.130Z,7.82
2023-01-13T08:54:17.592Z,8.10
2023-01-13T08:56:19.635Z,8.45
2023-01-13T08:58:21.299Z,7.55
2023-01-13T09:00:23.541Z,8.07
2023-01-13T09:02:25.498Z,8.48
2023-01-13T09:04:28.604Z,8.65
2023-01-13T09:06:30.423Z,8.18
2023-01-13T09:08:32.460Z,24.80
2023-01-13T09:10:38.661Z,8.55
2023-01-13T09:13:02.191Z,8.20
2023-01-13T09:15:06.514Z,8.18
2023-01-13T09:17:08.695Z,9.05
2023-01-13T09:19:10.591Z,8.93
2023-01-13T09:21:13.197Z,8.10
2023-01-13T09:23:14.909Z,8.10
2023-01-13T09:25:17.003Z,8.27
2023-01-13T09:27:18.873Z,7.70
2023-01-13T09:29:20.960Z,8.00
2023-01-13T09:31:22.746Z,8.13
2023-01-13T09:33:43.363Z,9.33
2023-01-13T09:35:45.263Z,8.40
2023-01-13T09:37:47.352Z,8.50
2023-01-13T09:39:49.089Z,8.52
2023-01-13T09:42:28.935Z,8.80
2023-01-13T09:44:47.360Z,7.90
2023-01-13T09:46:52.609Z,7.78
2023-01-13T09:48:55.412Z,8.00
2023-01-13T09:51:09.982Z,8.10
2023-01-13T09:53:30.430Z,8.35
2023-01-13T09:55:36.992Z,8.60
2023-01-13T09:57:40.010Z,8.43
2023-01-13T10:01:53.676Z,7.75
2023-01-13T10:03:55.703Z,7.85
2023-01-13T10:06:01.011Z,8.88
2023-01-13T10:08:07.755Z,8.65
2023-01-13T10:10:15.312Z,9.55
2023-01-13T10:12:38.743Z,7.60
2023-01-13T10:14:40.768Z,8.90
2023-01-13T10:16:48.317Z,8.00
2023-01-13T10:19:10.279Z,7.38
2023-01-13T10:21:11.918Z,7.68
2023-01-13T10:23:38.000Z,8.93
2023-01-13T10:25:48.983Z,8.45
2023-01-13T10:27:52.943Z,7.90
2023-01-13T10:29:54.645Z,7.20
2023-01-13T10:31:57.226Z,7.20
2023-01-13T10:34:00.150Z,7.75
2023-01-13T10:36:04.267Z,7.05
2023-01-13T10:38:15.461Z,7.05
2023-01-13T10:40:18.408Z,6.40
2023-01-13T10:42:22.968Z,6.70
2023-01-13T10:44:25.043Z,6.80
2023-01-13T10:46:27.829Z,6.72
2023-01-13T10:48:34.401Z,6.97
2023-01-13T10:50:36.779Z,7.07
2023-01-13T10:52:43.543Z,6.38
2023-01-13T10:54:51.304Z,6.25
2023-01-13T10:57:11.935Z,6.07
2023-01-13T10:59:14.194Z,6.10
2023-01-13T11:01:26.554Z,6.57
2023-01-13T11:03:35.515Z,6.57
2023-01-13T11:05:37.316Z,6.65
2023-01-13T11:07:41.006Z,6.93
2023-01-13T11:09:42.689Z,6.75
2023-01-13T11:11:44.987Z,7.63
2023-01-13T11:14:10.260Z,6.45
2023-01-13T11:16:17.579Z,6.82
2023-01-13T11:18:43.648Z,7.68
2023-01-13T11:20:47.500Z,6.43
2023-01-13T11:22:51.411Z,6.45
2023-01-13T11:24:58.675Z,6.50
2023-01-13T11:27:03.579Z,7.35
2023-01-13T11:29:16.690Z,7.68
2023-01-13T11:31:22.617Z,8.10
2023-01-13T11:33:35.153Z,7.60
2023-01-13T11:35:48.941Z,7.15
2023-01-13T11:37:58.443Z,7.93
2023-01-13T11:40:06.732Z,7.13
2023-01-13T11:42:24.146Z,7.65
2023-01-13T11:44:32.311Z,8.73
2023-01-13T11:46:34.038Z,7.50
2023-01-13T11:48:37.502Z,7.50
2023-01-13T11:50:48.228Z,8.27
2023-01-13T11:53:09.076Z,7.40
2023-01-13T11:55:27.042Z,7.35
2023-01-13T11:57:35.344Z,6.97
2023-01-13T11:59:55.699Z,7.88
2023-01-13T12:02:03.949Z,7.50
2023-01-13T12:04:05.636Z,7.13
2023-01-13T12:06:26.049Z,7.72
2023-01-13T12:08:48.365Z,7.43
2023-01-13T12:11:01.400Z,7.07
2023-01-13T12:13:25.775Z,8.02
2023-01-13T12:15:31.972Z,7.00
2023-01-13T12:17:39.820Z,7.25
2023-01-13T12:19:44.312Z,7.88
2023-01-13T12:22:05.095Z,7.10
2023-01-13T12:24:25.226Z,7.30
2023-01-13T12:26:30.035Z,7.38
2023-01-13T12:28:37.883Z,6.88
2023-01-13T12:30:45.776Z,7.60
2023-01-13T12:32:48.199Z,7.35
2023-01-13T12:35:10.252Z,7.57
2023-01-13T12:37:27.073Z,7.20
2023-01-13T12:39:31.833Z,6.53
2023-01-13T12:41:36.918Z,6.40
2023-01-13T12:44:00.075Z,6.78
2023-01-13T12:46:23.294Z,6.88
2023-01-13T12:50:27.020Z,6.80
2023-01-13T12:52:42.533Z,6.78
2023-01-13T12:54:44.249Z,6.95
2023-01-13T12:56:46.350Z,7.43
2023-01-13T12:58:48.395Z,7.68
2023-01-13T13:01:12.023Z,7.22
2023-01-13T13:03:13.992Z,7.07
2023-01-13T13:05:25.232Z,6.38
2023-01-13T13:07:29.837Z,6.70
2023-01-13T13:09:42.881Z,7.57
2023-01-13T13:12:04.033Z,7.35
2023-01-13T13:14:15.087Z,7.85
2023-01-13T13:16:26.471Z,7.80
2023-01-13T13:18:28.706Z,7.93
2023-01-13T13:20:50.834Z,7.97
2023-01-13T13:22:52.599Z,7.55
2023-01-13T13:24:54.709Z,7.53
2023-01-13T13:26:56.389Z,7.90
2023-01-13T13:29:16.751Z,8.07
2023-01-13T13:31:47.794Z,7.55
2023-01-13T13:33:55.606Z,6.30
2023-01-13T13:36:16.332Z,7.53
2023-01-13T13:38:36.712Z,7.60
2023-01-13T13:40:58.867Z,8.13
2023-01-13T13:43:19.303Z,7.55
2023-01-13T13:45:43.759Z,7.25
2023-01-13T13:47:45.507Z,7.28
2023-01-13T13:49:54.388Z,6.93
2023-01-13T13:52:00.411Z,7.10
2023-01-13T13:54:03.151Z,7.90
2023-01-13T13:56:14.921Z,7.55
2023-01-13T13:58:17.856Z,7.45
2023-01-13T14:00:27.482Z,6.70
2023-01-13T14:02:30.996Z,6.80
2023-01-13T14:04:35.585Z,6.60
2023-01-13T14:06:37.717Z,6.47
2023-01-13T14:08:46.643Z,5.82
2023-01-13T14:10:49.847Z,5.90
2023-01-13T14:12:51.556Z,6.50
2023-01-13T14:14:56.788Z,6.28
2023-01-13T14:16:59.224Z,6.05
2023-01-13T14:19:00.942Z,6.50
2023-01-13T14:21:04.259Z,6.77
2023-01-13T14:25:26.880Z,6.03
2023-01-13T14:27:29.475Z,5.95
2023-01-13T14:31:34.279Z,6.85
2023-01-13T14:33:40.827Z,6.57
2023-01-13T14:36:15.267Z,7.03
2023-01-13T14:38:17.363Z,6.13
2023-01-13T14:40:38.202Z,6.50
2023-01-13T14:42:40.347Z,6.40
2023-01-13T14:44:46.256Z,6.32
2023-01-13T14:46:48.384Z,6.47
2023-01-13T14:48:52.026Z,6.65
2023-01-13T14:50:54.055Z,6.60
2023-01-13T14:52:57.262Z,7.95
2023-01-13T14:55:11.263Z,6.47
2023-01-13T14:57:32.662Z,7.03
2023-01-13T14:59:34.733Z,7.30
2023-01-13T15:01:36.854Z,7.03
2023-01-13T15:03:42.487Z,7.65
2023-01-13T15:05:47.885Z,7.10
2023-01-13T15:07:50.631Z,6.93
2023-01-13T15:09:54.098Z,7.10
2023-01-13T15:11:58.894Z,7.25
2023-01-13T15:14:05.166Z,7.00
2023-01-13T15:16:13.605Z,6.90
2023-01-13T15:18:15.893Z,7.43
2023-01-13T15:20:20.196Z,7.00
2023-01-13T15:22:21.981Z,6.80
2023-01-13T15:24:24.090Z,6.23
2023-01-13T15:26:27.246Z,8.00
2023-01-13T15:28:30.115Z,7.57
2023-01-13T15:30:32.275Z,7.18
2023-01-13T15:32:34.370Z,7.28
2023-01-13T15:34:36.082Z,6.95
2023-01-13T15:36:39.562Z,7.27
2023-01-13T15:38:41.267Z,7.85
2023-01-13T15:40:43.586Z,7.30
2023-01-13T15:43:03.891Z,7.07
2023-01-13T15:45:24.815Z,7.40
2023-01-13T15:47:27.100Z,7.53
2023-01-13T15:49:35.209Z,7.38
2023-01-13T15:51:37.316Z,7.03
2023-01-13T15:53:39.764Z,7.60
2023-01-13T15:55:43.111Z,8.17
2023-01-13T15:57:48.096Z,7.43
2023-01-13T15:59:50.157Z,7.25
2023-01-13T16:01:52.186Z,8.48
2023-01-13T16:03:55.412Z,8.57
2023-01-13T16:05:58.509Z,9.05
2023-01-13T16:08:00.265Z,8.07
2023-01-13T16:10:05.113Z,8.00
2023-01-13T16:12:06.924Z,8.73
2023-01-13T16:14:08.955Z,9.00
2023-01-13T16:16:22.024Z,9.07
2023-01-13T16:18:24.404Z,8.10
2023-01-13T16:20:26.868Z,8.85
2023-01-13T16:22:29.043Z,8.90
2023-01-13T16:24:30.714Z,8.75
2023-01-13T16:26:36.251Z,8.20
2023-01-13T16:28:37.932Z,7.95
2023-01-13T16:30:40.508Z,8.20
2023-01-13T16:32:42.330Z,8.82
2023-01-13T16:34:44.469Z,8.57
2023-01-13T16:36:46.459Z,8.43
2023-01-13T16:38:49.765Z,8.93
2023-01-13T16:42:54.432Z,8.73
2023-01-13T16:44:56.189Z,9.30
2023-01-13T16:46:58.229Z,9.40
2023-01-13T16:49:02.779Z,9.63
2023-01-13T16:51:05.188Z,9.05
2023-01-13T16:53:10.428Z,9.87
2023-01-13T16:55:12.451Z,8.88
2023-01-13T16:57:14.247Z,9.43
2023-01-13T16:59:17.037Z,9.75
2023-01-13T17:01:24.911Z,8.70
2023-01-13T17:03:27.021Z,9.70
2023-01-13T17:05:28.920Z,9.13
2023-01-13T17:07:32.057Z,9.50
2023-01-13T17:09:34.833Z,9.70
2023-01-13T17:11:36.893Z,10.65
2023-01-13T17:13:38.697Z,9.98
2023-01-13T17:15:40.783Z,9.40
2023-01-13T17:17:43.510Z,9.98
2023-01-13T17:19:45.523Z,9.48
2023-01-13T17:21:47.458Z,8.68
2023-01-13T17:23:49.655Z,9.75
2023-01-13T17:25:54.667Z,8.43
2023-01-13T17:27:56.759Z,7.75
2023-01-13T17:29:58.432Z,9.05
2023-01-13T17:32:01.007Z,8.25
2023-01-13T17:34:05.798Z,8.93
2023-01-13T17:36:07.922Z,8.60
2023-01-13T17:38:10.035Z,7.97
2023-01-13T17:40:12.510Z,7.45
2023-01-13T17:42:15.057Z,7.93
2023-01-13T17:46:20.006Z,7.28
2023-01-13T17:48:22.098Z,7.25
2023-01-13T17:50:24.703Z,7.18
2023-01-13T17:54:28.433Z,6.68
2023-01-13T17:56:30.553Z,6.90
2023-01-13T17:58:32.324Z,7.38
2023-01-13T18:00:34.640Z,7.77
2023-01-13T18:02:36.368Z,7.10
2023-01-13T18:04:38.475Z,7.20
2023-01-13T18:06:40.168Z,7.65
2023-01-13T18:08:42.212Z,7.57
2023-01-13T18:10:43.931Z,8.65
2023-01-13T18:12:45.948Z,8.50
2023-01-13T18:14:47.927Z,8.95
2023-01-13T18:16:50.468Z,8.98
2023-01-13T18:18:52.370Z,9.57
2023-01-13T18:21:13.482Z,8.80
2023-01-13T18:23:37.544Z,9.77
2023-01-13T18:25:58.601Z,9.70
2023-01-13T18:28:02.686Z,9.52
2023-01-13T18:30:05.362Z,10.07
2023-01-13T18:32:09.004Z,10.63
2023-01-13T18:34:11.121Z,10.20
2023-01-13T18:36:12.868Z,10.93
2023-01-13T18:38:25.189Z,10.57
2023-01-13T18:40:27.881Z,10.70
2023-01-13T18:42:49.635Z,12.55
2023-01-13T18:44:52.558Z,13.43
2023-01-13T18:46:54.629Z,14.73
2023-01-13T18:48:56.367Z,14.82
2023-01-13T18:50:58.395Z,16.57
2023-01-13T18:53:00.391Z,16.33
2023-01-13T18:55:02.443Z,16.38
2023-01-13T18:57:04.338Z,15.98
2023-01-13T18:59:06.477Z,16.88
2023-01-13T19:01:10.348Z,16.70
2023-01-13T19:03:13.046Z,16.30
2023-01-13T19:05:16.750Z,16.35
2023-01-13T19:07:23.809Z,16.45
2023-01-13T19:09:26.924Z,16.55
2023-01-13T19:11:30.594Z,17.00
2023-01-13T19:13:32.758Z,17.60
2023-01-13T19:15:36.276Z,16.85
2023-01-13T19:17:38.045Z,18.25
2023-01-13T19:19:42.251Z,17.80
2023-01-13T19:21:43.916Z,19.00
2023-01-13T19:23:46.375Z,16.73
2023-01-13T19:25:48.056Z,17.33
2023-01-13T19:27:50.217Z,18.67
2023-01-13T19:29:53.643Z,18.92
2023-01-13T19:31:55.744Z,17.10
2023-01-13T19:33:57.918Z,17.80
2023-01-13T19:36:01.129Z,18.10
2023-01-13T19:38:02.827Z,18.08
2023-01-13T19:40:09.362Z,17.25
2023-01-13T19:42:30.466Z,17.08
2023-01-13T19:44:51.262Z,17.33
2023-01-13T19:46:52.959Z,17.67
2023-01-13T19:48:55.079Z,15.97
2023-01-13T19:50:58.138Z,16.13
2023-01-13T19:53:00.338Z,15.82
2023-01-13T19:55:02.189Z,16.02
2023-01-13T19:57:04.413Z,15.48
2023-01-13T19:59:06.125Z,14.80
2023-01-13T20:01:10.377Z,16.27
2023-01-13T20:03:12.546Z,13.68
2023-01-13T20:05:18.253Z,13.32
2023-01-13T20:07:20.122Z,11.88
2023-01-13T20:09:22.452Z,11.50
2023-01-13T20:11:30.963Z,10.65
2023-01-13T20:13:33.547Z,10.20
2023-01-13T20:15:35.277Z,9.98
2023-01-13T20:17:37.456Z,9.70
2023-01-13T20:19:39.179Z,9.65
2023-01-13T20:21:42.424Z,9.43
2023-01-13T20:23:44.592Z,10.35
2023-01-13T20:25:46.451Z,9.07
2023-01-13T20:27:48.506Z,9.03
2023-01-13T20:29:50.640Z,9.30
2023-01-13T20:31:53.622Z,7.97
2023-01-13T20:33:55.415Z,8.15
2023-01-13T20:35:58.336Z,8.40
2023-01-13T20:37:59.998Z,8.32
2023-01-13T20:40:02.053Z,8.02
2023-01-13T20:42:22.184Z,8.30
2023-01-13T20:44:24.257Z,8.40
2023-01-13T20:46:26.026Z,7.65
2023-01-13T20:48:28.039Z,9.83
2023-01-13T20:50:30.025Z,7.88
2023-01-13T20:52:32.292Z,7.37
2023-01-13T20:54:34.055Z,7.93
2023-01-13T20:56:36.565Z,8.73
2023-01-13T20:58:39.227Z,9.15
2023-01-13T21:00:40.959Z,14.80
2023-01-13T21:02:44.088Z,8.77
2023-01-13T21:04:45.875Z,9.00
2023-01-13T21:06:49.775Z,8.53
2023-01-13T21:08:54.196Z,8.25
2023-01-13T21:11:00.271Z,8.27
2023-01-13T21:13:20.568Z,8.02
2023-01-13T21:15:22.947Z,8.07
2023-01-13T21:17:43.284Z,8.73
2023-01-13T21:19:45.377Z,8.63
2023-01-13T21:21:47.143Z,8.60
2023-01-13T21:23:53.019Z,8.70
2023-01-13T21:25:54.757Z,8.48
2023-01-13T21:28:04.146Z,8.30
2023-01-13T21:30:06.218Z,8.40
2023-01-13T21:32:08.320Z,7.95
2023-01-13T21:34:10.384Z,8.20
2023-01-13T21:36:13.367Z,8.93
2023-01-13T21:38:15.180Z,8.70
2023-01-13T21:40:17.352Z,8.63
2023-01-13T21:42:37.602Z,9.13
2023-01-13T21:44:58.465Z,8.15
2023-01-13T21:47:29.555Z,7.95
2023-01-13T21:49:32.099Z,7.70
2023-01-13T21:51:34.944Z,8.40
2023-01-13T21:53:37.120Z,8.10
2023-01-13T21:55:38.812Z,7.95
2023-01-13T21:57:44.270Z,9.60
2023-01-13T21:59:45.991Z,10.10
2023-01-13T22:01:57.179Z,8.57
2023-01-13T22:04:12.803Z,8.25
2023-01-13T22:06:14.575Z,7.70
2023-01-13T22:08:16.687Z,8.77
2023-01-13T22:10:20.274Z,7.60
2023-01-13T22:12:25.047Z,8.38
2023-01-13T22:14:27.546Z,8.13
2023-01-13T22:16:29.460Z,8.15
2023-01-13T22:18:31.600Z,7.95
2023-01-13T22:20:33.296Z,8.43
2023-01-13T22:22:37.080Z,8.90
2023-01-13T22:24:43.195Z,7.68
2023-01-13T22:26:45.206Z,7.57
2023-01-13T22:28:46.917Z,7.97
2023-01-13T22:30:49.885Z,8.83
2023-01-13T22:32:51.639Z,8.48
2023-01-13T22:34:53.792Z,9.20
2023-01-13T22:36:55.708Z,8.32
2023-01-13T22:39:00.265Z,8.18
2023-01-13T22:41:03.185Z,8.43
2023-01-13T22:43:05.258Z,8.38
2023-01-13T22:45:08.081Z,9.18
2023-01-13T22:47:10.209Z,8.52
2023-01-13T22:49:12.244Z,8.57
2023-01-13T22:51:15.962Z,9.18
2023-01-13T22:53:17.821Z,8.95
2023-01-13T22:55:20.111Z,8.90
2023-01-13T22:57:21.955Z,9.20
2023-01-13T22:59:26.355Z,9.73
2023-01-13T23:01:29.327Z,8.98
2023-01-13T23:03:31.440Z,9.18
2023-01-13T23:05:33.271Z,9.25
2023-01-13T23:07:35.699Z,8.90
2023-01-13T23:09:37.387Z,8.90
2023-01-13T23:11:39.836Z,8.98
2023-01-13T23:13:43.350Z,8.70
2023-01-13T23:15:45.217Z,8.65
2023-01-13T23:17:50.648Z,8.23
2023-01-13T23:19:54.848Z,8.35
2023-01-13T23:21:56.950Z,8.10
2023-01-13T23:23:59.517Z,8.40
2023-01-13T23:26:01.238Z,8.38
2023-01-13T23:28:03.368Z,8.50
2023-01-13T23:30:06.193Z,7.97
2023-01-13T23:32:08.495Z,8.15
2023-01-13T23:34:10.247Z,9.13
2023-01-13T23:36:13.473Z,8.03
2023-01-13T23:38:15.153Z,8.38
2023-01-13T23:40:16.871Z,8.40
2023-01-13T23:42:19.028Z,8.67
2023-01-13T23:44:20.719Z,7.95
2023-01-13T23:46:23.023Z,8.82
2023-01-13T23:48:24.749Z,8.63
2023-01-13T23:50:26.472Z,9.15
2023-01-13T23:52:28.526Z,9.23
2023-01-13T23:54:30.352Z,8.70
2023-01-13T23:56:32.992Z,8.45
2023-01-13T23:58:35.336Z,8.00
